Time;durP1;ratioP1;P1;durP2;ratioP2;P2;SDS_P1;SDS_P2;PMS_P1;PMS_P2;Temp;Humidity;BMP_temperature;BMP_pressure;BME280_temperature;BME280_humidity;BME280_pressure;Samples;Min_cycle;Max_cycle;Signal;HPM_P1;HPM_P2
2023/07/03 00:13:22;;;;;;;;;;;;;;;26.32;45.22;99888.91;41844110;28;19935;-82
2023/07/03 00:33:23;;;;;;;;;;;;;;;26.32;45.25;99896.88;41846663;28;19932;-83
2023/07/03 00:53:23;;;;;;;;;;;;;;;26.31;44.83;99907.66;41831991;28;19933;-82
2023/07/03 01:13:26;;;;;;;;;;;;;;;26.31;45.19;99915.63;41860908;28;19964;-81
2023/07/03 01:33:30;;;;;;;;;;;;;;;26.28;44.83;99905.31;41881774;28;20885;-82
2023/07/03 01:53:32;;;;;;;;;;;;;;;26.27;45.05;99898.34;41908682;28;19929;-82
2023/07/03 02:13:32;;;;;;;;;;;;;;;26.26;44.76;99907.34;41900879;28;19924;-81
2023/07/03 02:33:32;;;;;;;;;;;;;;;26.23;44.87;99908.47;41875637;28;20010;-82
2023/07/03 02:53:33;;;;;;;;;;;;;;;26.20;45.13;99922.88;41884448;28;19935;-80
2023/07/03 03:13:33;;;;;;;;;;;;;;;26.20;44.75;99927.38;41880812;28;20370;-81
2023/07/03 03:33:33;;;;;;;;;;;;;;;26.19;45.03;99942.44;41831312;28;19937;-81
2023/07/03 03:53:34;;;;;;;;;;;;;;;26.19;45.20;99946.94;41817730;28;19932;-82
2023/07/03 04:13:34;;;;;;;;;;;;;;;26.17;45.15;99971.00;41824208;28;19936;-81
2023/07/03 04:33:35;;;;;;;;;;;;;;;26.17;44.78;99986.91;41896071;28;19929;-81
2023/07/03 04:53:38;;;;;;;;;;;;;;;26.16;45.17;100001.19;41898106;28;19964;-82
2023/07/03 05:13:38;;;;;;;;;;;;;;;26.17;44.76;100015.25;41898413;28;19925;-80
2023/07/03 05:33:39;;;;;;;;;;;;;;;26.18;44.79;100019.59;41926463;28;19924;-81
2023/07/03 05:53:39;;;;;;;;;;;;;;;26.16;44.83;100043.63;41919912;28;19925;-81
2023/07/03 06:13:39;;;;;;;;;;;;;;;26.18;45.03;100062.88;41870301;28;19932;-82
2023/07/03 06:33:40;;;;;;;;;;;;;;;26.19;45.19;100061.06;41855383;28;19925;-79
2023/07/03 06:53:40;;;;;;;;;;;;;;;26.20;44.72;100055.56;41879841;28;19924;-81
2023/07/03 07:13:43;;;;;;;;;;;;;;;26.22;44.78;100068.72;41871020;28;19932;-82
2023/07/03 07:33:44;;;;;;;;;;;;;;;26.23;44.81;100054.41;41849321;28;19925;-82
2023/07/03 07:53:46;;;;;;;;;;;;;;;26.25;44.79;100059.59;41825523;28;20200;-80
2023/07/03 08:13:49;;;;;;;;;;;;;;;26.26;45.19;100069.22;41847243;28;20032;-80
2023/07/03 08:33:51;;;;;;;;;;;;;;;26.27;44.79;100071.72;41918340;28;19928;-82
2023/07/03 08:53:54;;;;;;;;;;;;;;;26.27;45.12;100074.38;41916505;28;19964;-82
2023/07/03 09:13:58;;;;;;;;;;;;;;;26.28;45.05;100070.72;41946812;28;20028;-79
2023/07/03 09:33:58;;;;;;;;;;;;;;;26.30;45.01;100075.84;41925861;28;19954;-82
2023/07/03 09:54:05;;;;;;;;;;;;;;;26.33;44.59;100083.47;41913174;28;19925;-82
2023/07/03 10:14:08;;;;;;;;;;;;;;;26.35;45.01;100066.44;41877739;28;19972;-82
2023/07/03 10:34:14;;;;;;;;;;;;;;;26.41;44.72;100067.59;41880358;28;19932;-81
2023/07/03 10:54:20;;;;;;;;;;;;;;;26.49;44.33;100080.09;41862699;28;19944;-81
2023/07/03 11:14:43;;;;;;;;;;;;;;;26.55;44.68;100066.16;41898113;28;19913;-80
2023/07/03 11:34:44;;;;;;;;;;;;;;;26.64;44.21;100054.53;41888653;28;19932;-82
2023/07/03 11:54:44;;;;;;;;;;;;;;;26.69;44.40;100056.72;41823108;28;20409;-82
2023/07/03 12:14:47;;;;;;;;;;;;;;;26.75;43.97;100057.94;41815555;28;19933;-81
2023/07/03 12:34:49;;;;;;;;;;;;;;;26.76;44.22;100060.41;41845553;28;19908;-82
2023/07/03 12:54:49;;;;;;;;;;;;;;;26.76;44.38;100055.09;41880052;28;20455;-81
2023/07/03 13:15:07;;;;;;;;;;;;;;;26.76;44.37;100049.78;41877648;28;19979;-81
2023/07/03 13:35:07;;;;;;;;;;;;;;;26.76;44.32;100028.53;41883628;28;20496;-82
2023/07/03 13:55:08;;;;;;;;;;;;;;;26.78;44.11;100031.88;41913992;28;19925;-82
2023/07/03 14:15:13;;;;;;;;;;;;;;;26.80;44.08;100035.16;41893519;28;19994;-81
2023/07/03 14:35:14;;;;;;;;;;;;;;;26.90;43.82;100027.03;41877609;28;19935;-81
2023/07/03 14:55:15;;;;;;;;;;;;;;;27.02;43.81;100026.72;41856497;28;19928;-80
2023/07/03 15:15:15;;;;;;;;;;;;;;;27.08;44.00;100010.94;41888928;28;19925;-82
2023/07/03 15:35:15;;;;;;;;;;;;;;;27.15;43.44;100008.44;41857856;28;19958;-82
2023/07/03 15:55:18;;;;;;;;;;;;;;;27.22;43.41;100004.13;41844241;28;20397;-80
2023/07/03 16:15:18;;;;;;;;;;;;;;;27.16;43.57;99997.66;41834920;28;19967;-82
2023/07/03 16:35:19;;;;;;;;;;;;;;;27.07;43.88;100011.94;41808893;28;19964;-83
2023/07/03 16:55:20;;;;;;;;;;;;;;;27.00;44.09;100016.25;41843114;28;19948;-83
2023/07/03 17:15:21;;;;;;;;;;;;;;;26.98;43.87;100028.88;41872379;28;20333;-83
2023/07/03 17:35:25;;;;;;;;;;;;;;;26.96;44.33;100036.19;41923007;28;19928;-81
2023/07/03 17:55:26;;;;;;;;;;;;;;;26.90;44.37;100045.63;41908460;28;19994;-81
2023/07/03 18:15:26;;;;;;;;;;;;;;;26.88;44.13;100046.78;41900839;28;20019;-82
2023/07/03 18:35:27;;;;;;;;;;;;;;;26.85;44.05;100047.97;41860720;28;19952;-82
2023/07/03 18:55:27;;;;;;;;;;;;;;;26.83;44.24;100068.53;41848616;28;19925;-81
2023/07/03 19:15:28;;;;;;;;;;;;;;;26.81;44.58;100086.50;41841628;28;19976;-82
2023/07/03 19:35:29;;;;;;;;;;;;;;;26.78;44.36;100097.44;41825521;28;19960;-80
2023/07/03 19:55:33;;;;;;;;;;;;;;;26.75;44.57;100095.94;41837892;28;19929;-83
2023/07/03 20:15:34;;;;;;;;;;;;;;;26.72;44.85;100090.94;41873894;28;20345;-82
2023/07/03 20:35:34;;;;;;;;;;;;;;;26.71;44.79;100096.38;41963352;28;20036;-81
2023/07/03 20:55:42;;;;;;;;;;;;;;;26.69;44.63;100085.94;41947805;28;19928;-82
2023/07/03 21:15:44;;;;;;;;;;;;;;;26.70;44.89;100092.91;41939708;28;19951;-81
2023/07/03 21:35:44;;;;;;;;;;;;;;;26.68;44.63;100110.81;41920377;28;19925;-81
2023/07/03 21:55:45;;;;;;;;;;;;;;;26.67;45.02;100117.13;41941413;28;19929;-82
2023/07/03 22:15:45;;;;;;;;;;;;;;;26.66;45.14;100120.78;41894920;28;19933;-79
2023/07/03 22:35:45;;;;;;;;;;;;;;;26.67;44.76;100127.75;41830737;28;19925;-82
2023/07/03 22:55:46;;;;;;;;;;;;;;;26.65;45.11;100108.50;41831646;28;19925;-83
2023/07/03 23:15:56;;;;;;;;;;;;;;;26.63;45.05;100098.03;41828225;28;19936;-80
2023/07/03 23:35:58;;;;;;;;;;;;;;;26.63;45.06;100129.06;41841572;28;19928;-81
2023/07/03 23:56:03;;;;;;;;;;;;;;;26.61;44.92;100144.31;41821405;28;20043;-82
